Time;durP1;ratioP1;P1;durP2;ratioP2;P2;SDS_P1;SDS_P2;PMS_P1;PMS_P2;Temp;Humidity;BMP_temperature;BMP_pressure;BME280_temperature;BME280_humidity;BME280_pressure;Samples;Min_cycle;Max_cycle;Signal;HPM_P1;HPM_P2
2024/04/15 00:00:07;;;;;;;7.10;0.90;;;;;;;16.93;46.79;100179.78;11289737;26;20034;-62
2024/04/15 00:05:08;;;;;;;3.45;0.80;;;;;;;16.96;46.64;100173.91;11278972;26;20007;-61
2024/04/15 00:10:10;;;;;;;2.00;1.08;;;;;;;16.89;46.90;100173.13;11293291;26;20493;-61
2024/04/15 00:15:12;;;;;;;4.38;0.70;;;;;;;16.87;46.18;100161.66;11288764;26;20048;-61
2024/04/15 00:20:13;;;;;;;3.63;0.95;;;;;;;16.98;46.21;100162.81;11293971;26;20083;-61
2024/04/15 00:25:15;;;;;;;2.95;1.10;;;;;;;17.03;46.00;100158.38;11294663;26;20013;-61
2024/04/15 00:30:17;;;;;;;3.42;0.70;;;;;;;17.11;46.27;100138.25;11294180;26;20075;-62
2024/04/15 00:35:19;;;;;;;2.88;0.80;;;;;;;17.13;46.59;100122.56;11296433;26;19999;-62
2024/04/15 00:40:21;;;;;;;5.97;1.10;;;;;;;17.12;46.62;100114.63;11295967;26;20009;-61
2024/04/15 00:45:32;;;;;;;2.80;1.08;;;;;;;17.04;46.84;100103.03;11297313;26;19998;-60
2024/04/15 00:50:37;;;;;;;4.13;1.48;;;;;;;16.88;46.50;100100.03;11294563;26;20453;-61
2024/04/15 00:55:41;;;;;;;5.60;1.05;;;;;;;16.88;46.62;100094.59;11294028;26;20429;-60
2024/04/15 01:00:43;;;;;;;6.88;1.23;;;;;;;16.83;46.34;100077.09;11297407;26;19994;-60
2024/04/15 01:05:45;;;;;;;5.72;2.03;;;;;;;16.92;46.32;100069.50;11293489;26;20002;-60
2024/04/15 01:10:47;;;;;;;4.80;1.10;;;;;;;16.96;46.43;100070.72;11301901;26;20003;-62
2024/04/15 01:16:00;;;;;;;3.58;1.35;;;;;;;16.99;46.46;100074.88;11301267;26;19999;-61
2024/04/15 01:21:03;;;;;;;2.90;1.08;;;;;;;17.00;46.65;100062.94;11294489;26;19998;-62
2024/04/15 01:26:04;;;;;;;4.35;1.08;;;;;;;16.99;47.33;100064.00;11291232;26;20441;-62
2024/04/15 01:31:06;;;;;;;4.68;1.20;;;;;;;16.93;47.35;100041.28;11286466;26;19999;-61
2024/04/15 01:36:08;;;;;;;2.67;0.93;;;;;;;16.92;47.66;100052.38;11261437;26;20014;-61
2024/04/15 01:41:09;;;;;;;4.50;0.90;;;;;;;16.82;48.18;100048.31;11275577;26;20227;-61
2024/04/15 01:46:11;;;;;;;5.28;1.10;;;;;;;16.76;48.76;100035.59;11292070;26;20444;-61
2024/04/15 01:51:12;;;;;;;3.88;0.93;;;;;;;16.66;48.80;100027.13;11286430;26;20006;-63
2024/04/15 01:56:14;;;;;;;4.75;1.40;;;;;;;16.61;49.46;100014.25;11291040;26;19998;-64
2024/04/15 02:01:16;;;;;;;4.45;1.42;;;;;;;16.56;49.47;100013.25;11293308;26;20013;-60
2024/04/15 02:06:17;;;;;;;3.25;1.17;;;;;;;16.49;49.71;100013.31;11295077;26;20002;-59
2024/04/15 02:11:19;;;;;;;3.60;2.10;;;;;;;16.45;49.90;100003.97;11292656;26;20007;-58
2024/04/15 02:16:21;;;;;;;2.25;1.55;;;;;;;16.38;50.15;100001.31;11295677;26;20021;-62
2024/04/15 02:21:23;;;;;;;2.88;1.30;;;;;;;16.37;49.75;99987.97;11293452;26;20462;-63
2024/04/15 02:26:24;;;;;;;6.63;1.33;;;;;;;16.33;50.24;99982.16;11287890;26;20439;-62
2024/04/15 02:31:26;;;;;;;4.50;1.10;;;;;;;16.28;50.34;99992.84;11287455;26;20458;-61
2024/04/15 02:36:27;;;;;;;4.03;1.77;;;;;;;16.21;49.98;99986.63;11283858;26;20786;-61
2024/04/15 02:41:29;;;;;;;5.18;1.25;;;;;;;16.06;50.75;99998.66;11296024;26;19998;-61
2024/04/15 02:46:30;;;;;;;5.13;1.70;;;;;;;16.04;51.26;99994.50;11299545;26;20007;-61
2024/04/15 02:51:34;;;;;;;4.15;1.17;;;;;;;16.01;51.31;99984.09;11282771;26;19999;-61
2024/04/15 02:56:37;;;;;;;2.17;1.25;;;;;;;15.96;51.12;99992.91;11286885;26;20006;-59
2024/04/15 03:01:38;;;;;;;3.40;1.67;;;;;;;15.90;51.20;99992.97;11287293;26;20082;-60
2024/04/15 03:06:40;;;;;;;2.88;1.20;;;;;;;15.80;51.65;99980.72;11289356;26;20009;-60
2024/04/15 03:11:41;;;;;;;2.55;1.40;;;;;;;15.80;51.40;99963.63;11292182;26;19998;-60
2024/04/15 03:16:44;;;;;;;4.20;2.13;;;;;;;15.79;51.72;99964.66;11286399;26;19995;-62
2024/04/15 03:21:46;;;;;;;7.85;1.42;;;;;;;15.64;52.08;99959.53;11277823;26;20002;-62
2024/04/15 03:26:47;;;;;;;7.10;1.40;;;;;;;15.51;51.97;99946.91;11283152;26;19998;-61
2024/04/15 03:31:49;;;;;;;2.65;1.58;;;;;;;15.47;52.74;99953.81;11284358;26;20007;-64
2024/04/15 03:36:51;;;;;;;6.18;1.83;;;;;;;15.47;53.19;99959.22;11285267;26;20003;-63
2024/04/15 03:41:52;;;;;;;6.22;2.55;;;;;;;15.30;53.82;99953.47;11295639;26;20017;-60
2024/04/15 03:46:54;;;;;;;4.60;1.80;;;;;;;15.27;53.63;99957.47;11291128;26;20021;-60
2024/04/15 03:51:55;;;;;;;4.93;2.00;;;;;;;15.34;54.31;99967.41;11284874;26;20127;-59
2024/04/15 03:56:57;;;;;;;6.55;2.83;;;;;;;15.06;54.31;99965.88;11287155;26;20014;-61
2024/04/15 04:01:58;;;;;;;7.65;2.90;;;;;;;14.95;54.32;99967.41;11299053;26;20017;-61
2024/04/15 04:07:03;;;;;;;5.15;2.33;;;;;;;14.84;53.94;99968.88;11303805;26;20010;-61
2024/04/15 04:12:04;;;;;;;5.40;2.72;;;;;;;14.74;54.21;99963.09;11292923;26;20014;-58
2024/04/15 04:17:06;;;;;;;6.35;2.58;;;;;;;14.63;54.39;99971.84;11293930;26;19999;-58
2024/04/15 04:22:07;;;;;;;9.55;3.38;;;;;;;14.67;53.95;99960.41;11295880;26;20002;-59
2024/04/15 04:27:09;;;;;;;6.70;2.50;;;;;;;14.76;54.25;99961.00;11296524;26;19995;-60
2024/04/15 04:32:11;;;;;;;5.32;2.92;;;;;;;14.62;54.19;99971.03;11291674;26;20014;-63
2024/04/15 04:37:14;;;;;;;5.68;2.67;;;;;;;14.65;54.72;99957.09;11296560;26;20002;-63
2024/04/15 04:42:15;;;;;;;5.10;2.55;;;;;;;14.54;54.77;99951.47;11302389;26;20017;-63
2024/04/15 04:47:19;;;;;;;5.82;3.65;;;;;;;14.48;55.54;99967.50;11301110;26;20009;-63
2024/04/15 04:52:20;;;;;;;3.67;2.45;;;;;;;14.33;55.92;99966.88;11297909;26;20011;-63
2024/04/15 04:57:22;;;;;;;4.65;2.85;;;;;;;14.33;55.48;99961.47;11297000;26;19998;-63
2024/04/15 05:02:25;;;;;;;4.05;2.20;;;;;;;14.41;55.86;99966.66;11287885;26;20021;-63
2024/04/15 05:07:26;;;;;;;8.40;2.40;;;;;;;14.32;55.74;99975.25;11291286;26;20010;-69
2024/04/15 05:12:28;;;;;;;2.65;2.10;;;;;;;14.44;55.38;99966.25;11298077;26;20823;-67
2024/04/15 05:17:30;;;;;;;9.40;2.00;;;;;;;14.50;55.22;99958.34;11300460;26;20338;-68
2024/04/15 05:22:31;;;;;;;6.78;2.35;;;;;;;14.39;54.98;99949.81;11301012;26;20129;-72
2024/04/15 05:27:35;;;;;;;4.20;2.15;;;;;;;14.33;55.83;99955.25;11298192;26;20006;-71
2024/04/15 05:32:36;;;;;;;5.65;2.05;;;;;;;14.30;55.55;99951.09;11296852;26;19999;-69
2024/04/15 05:37:38;;;;;;;5.28;2.50;;;;;;;14.21;55.84;99946.94;11298491;26;20588;-70
2024/04/15 05:42:40;;;;;;;4.45;2.60;;;;;;;14.33;55.69;99952.53;11289157;26;20014;-60
2024/04/15 05:47:41;;;;;;;4.13;2.08;;;;;;;14.42;55.02;99938.59;11289943;26;20078;-60
2024/04/15 05:52:43;;;;;;;3.38;2.00;;;;;;;14.40;55.06;99940.69;11296178;26;20002;-60
2024/04/15 05:57:44;;;;;;;6.22;1.85;;;;;;;14.35;55.32;99916.13;11298562;26;20483;-60
2024/04/15 06:02:46;;;;;;;8.02;1.73;;;;;;;14.48;54.99;99912.59;11295561;26;20470;-64
2024/04/15 06:07:48;;;;;;;4.10;2.28;;;;;;;14.65;54.72;99902.13;11286212;26;20030;-63
2024/04/15 06:12:49;;;;;;;3.88;1.95;;;;;;;14.72;54.84;99912.94;11286726;26;20741;-64
2024/04/15 06:17:51;;;;;;;5.13;2.53;;;;;;;14.90;54.01;99909.53;11289152;26;19999;-63
2024/04/15 06:22:52;;;;;;;4.00;1.52;;;;;;;14.97;54.00;99915.75;11293744;26;20399;-63
2024/04/15 06:27:54;;;;;;;6.75;1.35;;;;;;;15.09;53.13;99916.75;11291987;26;20002;-63
2024/04/15 06:32:56;;;;;;;3.00;1.30;;;;;;;15.01;53.16;99908.88;11290563;26;20472;-61
2024/04/15 06:37:57;;;;;;;4.95;1.13;;;;;;;15.16;52.61;99909.41;11292239;26;20013;-59
2024/04/15 06:43:01;;;;;;;2.40;1.10;;;;;;;15.47;52.23;99905.88;11286708;26;20018;-61
2024/04/15 06:48:05;;;;;;;6.68;1.75;;;;;;;15.40;52.49;99901.53;11287169;26;20002;-61
2024/04/15 06:53:07;;;;;;;7.35;1.60;;;;;;;15.33;52.60;99892.66;11291633;26;20005;-61
2024/04/15 06:58:08;;;;;;;8.55;2.08;;;;;;;15.49;51.85;99889.41;11302851;26;20009;-62
2024/04/15 07:03:10;;;;;;;3.95;1.17;;;;;;;15.47;51.84;99884.19;11291188;26;20009;-60
2024/04/15 07:08:12;;;;;;;8.10;1.05;;;;;;;15.40;51.34;99888.84;11291114;26;20018;-61
2024/04/15 07:13:14;;;;;;;4.90;1.52;;;;;;;15.32;51.61;99875.56;11289437;26;20083;-62
2024/04/15 07:18:16;;;;;;;6.00;1.27;;;;;;;15.14;51.45;99873.59;11252035;26;20658;-59
2024/04/15 07:23:18;;;;;;;2.97;0.95;;;;;;;14.99;52.13;99875.78;11285093;26;20344;-59
2024/04/15 07:28:23;;;;;;;6.97;1.33;;;;;;;14.94;52.01;99859.34;11289686;26;20120;-59
2024/04/15 07:33:24;;;;;;;3.25;1.10;;;;;;;15.06;52.04;99850.31;11291088;26;20016;-61
2024/04/15 07:38:26;;;;;;;1.85;0.80;;;;;;;15.13;51.96;99834.03;11297387;26;20472;-61
2024/04/15 07:43:29;;;;;;;5.70;0.57;;;;;;;15.14;50.90;99822.16;11324951;26;20812;-58
2024/04/15 07:48:31;;;;;;;3.22;0.55;;;;;;;15.38;50.59;99798.88;11315925;26;20090;-57
2024/04/15 07:53:32;;;;;;;2.40;0.60;;;;;;;15.65;49.85;99768.81;11312193;26;20006;-58
2024/04/15 07:58:34;;;;;;;5.72;1.42;;;;;;;15.84;48.82;99767.81;11310888;26;20010;-58
2024/04/15 08:03:35;;;;;;;5.38;0.63;;;;;;;15.85;48.74;99768.63;11307802;26;20013;-57
2024/04/15 08:08:37;;;;;;;3.17;0.70;;;;;;;15.99;48.67;99759.28;11307772;26;20043;-59
2024/04/15 08:13:38;;;;;;;1.35;0.52;;;;;;;16.33;48.06;99761.59;11328285;26;20002;-58
2024/04/15 08:18:40;;;;;;;4.97;0.70;;;;;;;16.54;47.12;99758.41;11291688;26;20075;-58
2024/04/15 08:23:41;;;;;;;3.55;0.80;;;;;;;16.75;47.14;99748.94;11266699;26;20002;-60
2024/04/15 08:28:43;;;;;;;3.40;0.70;;;;;;;16.76;47.07;99747.03;11282960;26;19995;-69
2024/04/15 08:33:45;;;;;;;3.58;1.40;;;;;;;17.03;46.67;99755.63;11291861;26;19999;-64
2024/04/15 08:38:46;;;;;;;4.38;1.00;;;;;;;17.13;46.88;99741.50;11287207;26;20360;-63
2024/04/15 08:43:51;;;;;;;1.60;0.40;;;;;;;17.29;45.89;99738.06;11296167;26;20009;-69
2024/04/15 08:48:53;;;;;;;1.35;0.68;;;;;;;17.43;45.56;99733.22;11294952;26;19999;-70
2024/04/15 08:53:55;;;;;;;2.15;0.80;;;;;;;17.39;45.62;99726.63;11285140;26;20025;-68
2024/04/15 08:58:57;;;;;;;2.15;0.55;;;;;;;17.09;45.21;99721.28;11292435;26;20412;-68
2024/04/15 09:04:03;;;;;;;1.27;0.40;;;;;;;17.03;45.10;99712.19;11296943;26;20007;-70
2024/04/15 09:09:05;;;;;;;1.67;0.28;;;;;;;17.06;44.14;99700.84;11295540;26;19998;-69
2024/04/15 09:14:06;;;;;;;1.00;0.10;;;;;;;17.04;43.34;99697.53;11260294;26;20003;-70
2024/04/15 09:19:09;;;;;;;0.63;0.20;;;;;;;16.91;42.54;99687.75;11298491;26;20017;-67
2024/04/15 09:24:11;;;;;;;1.60;0.20;;;;;;;16.87;42.21;99677.59;11289392;26;20030;-70
2024/04/15 09:29:13;;;;;;;2.35;0.20;;;;;;;16.90;41.76;99675.22;11290520;26;20006;-70
2024/04/15 09:34:15;;;;;;;4.55;0.25;;;;;;;17.19;41.06;99665.31;11296723;26;20006;-70
2024/04/15 09:39:19;;;;;;;0.63;0.20;;;;;;;17.79;40.72;99647.03;11294020;26;20906;-64
2024/04/15 09:44:22;;;;;;;1.60;0.22;;;;;;;17.75;40.52;99640.44;11295977;26;20014;-70
2024/04/15 09:49:24;;;;;;;2.63;0.30;;;;;;;18.03;40.17;99617.91;11288817;26;20019;-60
2024/04/15 09:54:32;;;;;;;4.10;0.43;;;;;;;18.18;39.82;99603.75;11258291;26;20021;-60
2024/04/15 09:59:38;;;;;;;3.92;0.20;;;;;;;18.12;39.99;99588.41;11291000;26;20013;-60
2024/04/15 10:04:44;;;;;;;1.85;0.20;;;;;;;18.17;39.76;99583.06;11290483;26;20105;-62
2024/04/15 10:09:48;;;;;;;1.10;0.30;;;;;;;18.59;38.85;99566.34;11288314;26;20017;-68
2024/04/15 10:14:50;;;;;;;1.17;0.20;;;;;;;18.35;38.18;99568.41;11294974;26;20007;-58
2024/04/15 10:19:52;;;;;;;1.70;0.10;;;;;;;18.98;37.50;99539.19;11292715;26;20013;-58
2024/04/15 10:24:54;;;;;;;1.80;0.05;;;;;;;24.41;28.97;99498.78;11290432;26;20679;-59
2024/04/15 10:29:56;;;;;;;2.85;0.20;;;;;;;28.64;24.14;99490.00;11300048;26;20010;-59
2024/04/15 10:34:58;;;;;;;1.38;0.17;;;;;;;29.98;22.32;99489.69;11294599;26;20009;-59
2024/04/15 10:40:04;;;;;;;2.17;0.20;;;;;;;25.57;27.28;99502.44;11290731;26;20349;-63
2024/04/15 10:45:06;;;;;;;4.13;0.40;;;;;;;22.87;28.82;99499.63;11288950;26;20087;-63
2024/04/15 10:50:08;;;;;;;1.05;0.10;;;;;;;21.82;30.10;99478.31;11288180;26;19994;-63
2024/04/15 10:55:10;;;;;;;3.42;0.25;;;;;;;21.58;29.77;99473.34;11283482;26;20003;-62
2024/04/15 11:00:14;;;;;;;2.20;0.15;;;;;;;21.29;29.53;99467.53;11287316;26;19999;-60
2024/04/15 11:05:16;;;;;;;3.30;0.47;;;;;;;21.05;29.65;99448.84;11294776;26;19998;-60
2024/04/15 11:10:18;;;;;;;2.15;0.17;;;;;;;21.22;29.58;99437.69;11286172;26;20003;-60
2024/04/15 11:15:21;;;;;;;2.13;0.45;;;;;;;21.53;29.11;99414.00;11294457;26;20831;-67
2024/04/15 11:20:23;;;;;;;0.95;0.20;;;;;;;21.61;28.96;99407.19;11292107;26;20002;-69
2024/04/15 11:25:25;;;;;;;0.82;0.10;;;;;;;21.34;28.72;99394.53;11181951;26;20007;-68
2024/04/15 11:30:29;;;;;;;1.75;0.20;;;;;;;21.96;28.61;99375.44;11285866;26;20002;-66
2024/04/15 11:35:31;;;;;;;0.68;0.10;;;;;;;26.83;23.05;99350.13;11288103;26;20078;-66
2024/04/15 11:40:33;;;;;;;1.15;0.10;;;;;;;29.77;20.27;99337.13;11299571;26;20002;-71
2024/04/15 11:45:34;;;;;;;2.83;0.10;;;;;;;30.28;19.84;99325.41;11307572;26;20010;-68
2024/04/15 11:50:36;;;;;;;4.18;0.20;;;;;;;31.50;18.21;99314.34;11292980;26;20013;-69
2024/04/15 11:55:38;;;;;;;1.83;0.68;;;;;;;31.90;17.71;99288.72;11285001;26;20022;-67
2024/04/15 12:00:40;;;;;;;0.65;0.15;;;;;;;31.01;18.18;99292.66;11290519;26;19995;-69
2024/04/15 12:05:42;;;;;;;3.95;0.13;;;;;;;30.69;18.67;99279.50;11266856;26;20013;-68
2024/04/15 12:10:44;;;;;;;0.40;0.10;;;;;;;30.10;18.53;99266.44;11273509;26;20027;-67
2024/04/15 12:15:46;;;;;;;1.90;0.10;;;;;;;30.76;17.92;99252.03;11310789;26;20002;-69
2024/04/15 12:20:48;;;;;;;2.58;0.10;;;;;;;32.02;16.70;99246.25;11300289;26;19995;-69
2024/04/15 12:25:50;;;;;;;2.47;0.10;;;;;;;30.18;18.27;99224.00;11271391;26;20010;-65
2024/04/15 12:30:52;;;;;;;2.40;0.10;;;;;;;27.89;19.49;99221.69;11310371;26;21125;-63
2024/04/15 12:35:54;;;;;;;1.00;0.20;;;;;;;26.44;20.58;99197.09;11306039;26;20008;-69
2024/04/15 12:40:56;;;;;;;3.92;1.45;;;;;;;27.61;19.61;99193.44;11275063;26;20006;-69
2024/04/15 12:45:57;;;;;;;7.22;0.40;;;;;;;28.93;18.58;99164.94;11307819;26;20017;-63
2024/04/15 12:50:59;;;;;;;4.57;0.38;;;;;;;29.08;18.80;99158.84;11311214;26;20002;-65
2024/04/15 12:56:01;;;;;;;2.28;0.20;;;;;;;30.71;18.01;99150.38;11269703;26;20027;-65
2024/04/15 13:01:05;;;;;;;3.95;0.20;;;;;;;30.95;17.60;99148.88;11296282;21;20019;-89
2024/04/15 13:06:08;;;;;;;1.83;0.10;;;;;;;32.96;16.43;99128.25;11196135;21;19995;-64
2024/04/15 13:11:10;;;;;;;5.13;0.20;;;;;;;31.79;17.37;99104.09;11219693;26;20050;-66
2024/04/15 13:21:35;;;;;;;5.50;0.73;;;;;;;28.83;18.52;99098.84;11091933;26;20044;-71
2024/04/15 13:26:37;;;;;;;8.35;0.20;;;;;;;26.79;19.75;99089.91;11153980;21;20013;-91
2024/04/15 13:31:43;;;;;;;4.68;0.20;;;;;;;27.09;19.58;99061.53;11179711;26;20019;-91
2024/04/15 13:36:57;;;;;;;3.50;0.20;;;;;;;26.69;19.21;99055.94;11232202;26;19996;-91
2024/04/15 13:41:59;;;;;;;2.08;0.32;;;;;;;25.95;19.64;99053.59;11193970;26;20115;-91
2024/04/15 13:47:01;;;;;;;3.63;0.40;;;;;;;24.53;21.06;99023.06;11209088;26;20030;-90
2024/04/15 13:52:15;;;;;;;1.90;0.17;;;;;;;23.76;21.70;99018.72;11197736;26;20019;-90
2024/04/15 13:57:18;;;;;;;3.42;0.20;;;;;;;23.10;22.63;99037.63;11184831;26;20028;-91
2024/04/15 14:02:20;;;;;;;4.13;0.35;;;;;;;22.96;22.41;99031.16;11193029;26;20007;-91
2024/04/15 14:07:25;;;;;;;3.08;0.10;;;;;;;22.62;22.46;99023.03;11203007;26;20076;-92
2024/04/15 14:12:27;;;;;;;1.58;0.10;;;;;;;22.94;22.72;99031.47;11219074;26;20015;-91
2024/04/15 14:17:29;;;;;;;3.35;0.20;;;;;;;22.10;23.30;99011.66;11196152;26;20029;-92
2024/04/15 14:22:32;;;;;;;5.55;0.20;;;;;;;21.83;23.53;99006.66;11169423;26;20008;-92
2024/04/15 14:27:39;;;;;;;4.25;0.28;;;;;;;21.17;24.48;98998.47;11256734;26;19995;-92
2024/04/15 14:32:42;;;;;;;1.08;0.00;;;;;;;20.88;24.61;99002.94;11264269;26;20001;-92
2024/04/15 14:37:44;;;;;;;6.20;0.30;;;;;;;20.04;25.38;99002.44;11255978;26;20010;-92
2024/04/15 14:42:47;;;;;;;8.07;0.20;;;;;;;19.65;25.54;98990.06;11276964;26;20042;-92
2024/04/15 14:47:49;;;;;;;4.75;0.20;;;;;;;19.81;25.90;98952.78;11255534;26;19999;-91
2024/04/15 14:52:51;;;;;;;5.35;0.30;;;;;;;19.88;25.69;98938.88;11276805;26;20002;-91
2024/04/15 14:57:53;;;;;;;14.63;1.75;;;;;;;20.18;25.64;98938.88;11281877;26;20029;-91
2024/04/15 15:02:55;;;;;;;10.45;0.43;;;;;;;20.21;25.76;98934.75;11271721;26;19995;-92
2024/04/15 15:07:57;;;;;;;4.13;0.20;;;;;;;20.29;25.37;98933.41;11238769;26;20015;-92
2024/04/15 15:13:00;;;;;;;2.42;0.20;;;;;;;19.78;26.01;98940.47;11234024;26;20024;-91
2024/04/15 15:18:02;;;;;;;3.92;0.30;;;;;;;19.69;26.03;98922.16;11242236;26;20018;-91
2024/04/15 15:23:04;;;;;;;2.70;0.35;;;;;;;20.10;26.26;98912.16;11273077;26;20010;-90
2024/04/15 15:28:07;;;;;;;5.82;0.32;;;;;;;19.69;26.88;98908.53;11261927;26;20026;-91
2024/04/15 15:33:09;;;;;;;3.70;0.20;;;;;;;19.30;27.49;98901.69;11245125;26;20002;-91
2024/04/15 15:38:11;;;;;;;1.45;0.10;;;;;;;19.01;27.54;98907.59;11248659;26;20000;-91
2024/04/15 15:43:13;;;;;;;2.63;0.38;;;;;;;18.75;28.38;98895.75;11275511;26;20026;-91
2024/04/15 15:48:15;;;;;;;2.22;0.10;;;;;;;18.48;28.94;98900.50;11251127;26;20006;-90
2024/04/15 15:53:16;;;;;;;2.63;0.17;;;;;;;18.32;29.16;98891.44;11268647;26;20018;-91
2024/04/15 15:58:19;;;;;;;2.03;0.20;;;;;;;18.38;29.49;98890.38;11266325;26;20278;-91
2024/04/15 16:03:21;;;;;;;3.80;0.20;;;;;;;18.24;29.93;98868.28;11218556;26;20015;-90
2024/04/15 16:08:23;;;;;;;8.18;0.30;;;;;;;18.19;29.70;98849.22;11298319;26;20060;-90
2024/04/15 16:13:24;;;;;;;4.93;0.30;;;;;;;17.94;30.33;98853.41;11297109;21;20010;-60
2024/04/15 16:18:27;;;;;;;2.25;0.30;;;;;;;18.01;30.16;98851.28;11174311;26;20008;-60
2024/04/15 16:23:29;;;;;;;2.28;0.20;;;;;;;17.69;30.38;98847.75;11230072;26;19995;-61
2024/04/15 16:28:31;;;;;;;1.42;0.30;;;;;;;17.63;30.63;98834.13;11204607;26;20006;-62
2024/04/15 16:33:32;;;;;;;1.48;0.10;;;;;;;17.51;31.54;98846.22;11225288;26;20014;-61
2024/04/15 16:38:34;;;;;;;11.55;0.30;;;;;;;17.34;31.95;98882.50;11191454;26;20030;-63
2024/04/15 16:43:36;;;;;;;3.03;0.20;;;;;;;16.81;33.67;98903.91;11199358;26;20059;-62
2024/04/15 16:48:37;;;;;;;2.55;0.22;;;;;;;14.66;41.58;98930.84;11188691;26;20057;-60
2024/04/15 16:53:39;;;;;;;3.20;0.20;;;;;;;13.58;46.15;98961.75;11192407;26;19999;-60
2024/04/15 16:58:41;;;;;;;0.75;0.20;;;;;;;13.01;48.97;98951.25;11226782;26;20399;-61
2024/04/15 17:03:42;;;;;;;2.75;0.10;;;;;;;12.80;49.28;98964.16;11200038;26;20018;-62
2024/04/15 17:08:44;;;;;;;3.72;0.20;;;;;;;12.45;51.31;99015.94;11209578;26;20083;-61
2024/04/15 17:13:46;;;;;;;3.38;0.80;;;;;;;11.18;58.37;99185.34;11228552;26;20850;-65
2024/04/15 17:18:48;;;;;;;3.03;0.17;;;;;;;9.37;63.39;99169.81;11222735;26;20084;-65
2024/04/15 17:23:53;;;;;;;0.00;0.00;;;;;;;8.77;66.18;99152.47;11222068;26;20083;-64
2024/04/15 17:28:55;;;;;;;0.00;0.00;;;;;;;8.48;66.22;99157.81;11229738;26;20116;-66
2024/04/15 17:33:57;;;;;;;0.00;0.00;;;;;;;8.38;66.75;99127.00;11175455;26;20075;-65
2024/04/15 17:39:00;;;;;;;0.00;0.00;;;;;;;8.16;67.15;99132.34;11194675;26;20007;-64
2024/04/15 17:44:02;;;;;;;0.00;0.00;;;;;;;8.23;66.86;99102.94;11207487;26;20110;-64
2024/04/15 17:49:04;;;;;;;0.00;0.00;;;;;;;8.21;66.45;99161.22;11205610;26;20018;-62
2024/04/15 17:54:06;;;;;;;0.00;0.00;;;;;;;8.18;66.73;99225.84;11224437;26;20093;-63
2024/04/15 17:59:11;;;;;;;0.00;0.00;;;;;;;8.14;67.58;99239.59;11162623;26;20003;-63
2024/04/15 18:04:12;;;;;;;0.00;0.00;;;;;;;8.22;67.26;99267.28;11210417;26;20376;-62
2024/04/15 18:09:15;;;;;;;0.00;0.00;;;;;;;8.18;67.07;99290.09;11234107;26;20006;-63
2024/04/15 18:14:16;;;;;;;0.00;0.00;;;;;;;8.06;66.89;99260.28;11232103;26;20399;-61
2024/04/15 18:19:18;;;;;;;0.00;0.00;;;;;;;8.07;66.88;99261.94;11198732;26;20447;-61
2024/04/15 18:24:20;;;;;;;0.00;0.00;;;;;;;8.04;66.72;99283.72;11224542;26;20011;-61
2024/04/15 18:29:22;;;;;;;0.00;0.00;;;;;;;8.12;66.51;99255.00;11222916;26;19999;-61
2024/04/15 18:34:27;;;;;;;0.00;0.00;;;;;;;8.19;66.27;99233.66;11175805;26;19995;-61
2024/04/15 18:39:29;;;;;;;0.00;0.00;;;;;;;8.12;66.36;99249.66;11217418;26;20022;-59
2024/04/15 18:44:30;;;;;;;0.00;0.00;;;;;;;7.98;66.79;99289.81;11224674;26;19999;-59
2024/04/15 18:49:32;;;;;;;0.00;0.00;;;;;;;7.90;66.95;99274.69;11223762;26;20014;-60
2024/04/15 18:54:33;;;;;;;0.00;0.00;;;;;;;7.88;66.84;99272.22;11227900;26;20011;-59
2024/04/15 18:59:35;;;;;;;0.00;0.00;;;;;;;7.91;66.50;99316.47;11218849;26;20006;-59
2024/04/15 19:04:37;;;;;;;0.00;0.00;;;;;;;7.93;66.26;99309.91;11224307;26;20022;-60
2024/04/15 19:09:39;;;;;;;0.43;0.43;;;;;;;7.92;66.12;99351.09;11215052;26;20022;-58
2024/04/15 19:14:41;;;;;;;0.00;0.00;;;;;;;8.03;65.99;99343.63;11227293;26;20803;-59
2024/04/15 19:20:03;;;;;;;0.00;0.00;;;;;;;8.03;65.86;99320.34;11212888;26;20022;-60
2024/04/15 19:25:06;;;;;;;0.00;0.00;;;;;;;8.00;65.83;99319.88;11236164;26;20509;-59
2024/04/15 19:30:08;;;;;;;0.00;0.00;;;;;;;7.94;65.72;99321.47;11220872;26;20402;-60
2024/04/15 19:35:10;;;;;;;0.00;0.00;;;;;;;7.92;65.55;99327.00;11236740;26;20011;-61
2024/04/15 19:40:12;;;;;;;0.00;0.00;;;;;;;7.88;65.54;99330.25;11231819;26;20007;-62
2024/04/15 19:45:13;;;;;;;0.00;0.00;;;;;;;7.92;65.42;99335.03;11235274;26;20003;-61
2024/04/15 19:50:15;;;;;;;0.30;0.30;;;;;;;8.02;65.09;99329.41;11229545;26;20027;-62
2024/04/15 19:55:16;;;;;;;0.00;0.00;;;;;;;8.02;65.04;99332.09;11224462;26;20026;-61
2024/04/15 20:00:18;;;;;;;0.00;0.00;;;;;;;8.04;64.97;99338.09;11227698;26;20047;-61
2024/04/15 20:05:20;;;;;;;0.00;0.00;;;;;;;7.99;64.96;99326.28;11226836;26;20003;-60
2024/04/15 20:10:21;;;;;;;0.00;0.00;;;;;;;7.84;65.29;99347.66;11230972;26;19999;-61
2024/04/15 20:15:23;;;;;;;0.00;0.00;;;;;;;7.75;65.29;99346.91;11229357;26;22924;-61
2024/04/15 20:20:28;;;;;;;0.00;0.00;;;;;;;7.69;65.40;99361.03;11224671;26;20875;-62
2024/04/15 20:25:30;;;;;;;0.00;0.00;;;;;;;7.69;65.28;99355.69;11220340;26;20088;-62
2024/04/15 20:30:32;;;;;;;0.00;0.00;;;;;;;7.63;65.21;99357.22;11224718;26;20018;-61
2024/04/15 20:35:33;;;;;;;0.00;0.00;;;;;;;7.58;65.00;99361.44;11225097;26;20010;-62
2024/04/15 20:40:35;;;;;;;0.00;0.00;;;;;;;7.49;65.39;99358.03;11206468;26;20014;-61
2024/04/15 20:45:45;;;;;;;0.00;0.00;;;;;;;7.47;65.17;99360.88;11233706;26;19995;-61
2024/04/15 20:50:47;;;;;;;0.00;0.00;;;;;;;7.46;65.26;99356.53;11227990;26;19999;-60
2024/04/15 20:55:48;;;;;;;0.00;0.00;;;;;;;7.43;65.42;99356.09;11233157;26;20489;-61
2024/04/15 21:00:50;;;;;;;0.00;0.00;;;;;;;7.39;65.52;99360.13;11215870;26;19995;-62
2024/04/15 21:05:52;;;;;;;0.00;0.00;;;;;;;7.45;65.60;99357.56;11230420;26;20006;-60
2024/04/15 21:10:53;;;;;;;0.00;0.00;;;;;;;7.52;64.88;99347.81;11229754;26;20003;-60
2024/04/15 21:15:58;;;;;;;0.00;0.00;;;;;;;7.45;65.15;99359.41;11233924;26;20003;-60
2024/04/15 21:21:00;;;;;;;0.00;0.00;;;;;;;7.39;65.08;99352.94;11234084;26;20041;-61
2024/04/15 21:26:04;;;;;;;0.00;0.00;;;;;;;7.40;65.16;99357.25;11227137;26;20339;-61
2024/04/15 21:31:06;;;;;;;0.00;0.00;;;;;;;7.37;65.23;99360.31;11230536;26;20007;-60
2024/04/15 21:36:08;;;;;;;0.00;0.00;;;;;;;7.38;65.08;99353.09;11230284;26;20006;-61
2024/04/15 21:41:09;;;;;;;0.00;0.00;;;;;;;7.40;65.15;99353.75;11230357;26;20010;-60
2024/04/15 21:46:11;;;;;;;0.00;0.00;;;;;;;7.31;65.33;99347.66;11233304;26;20013;-60
2024/04/15 21:51:12;;;;;;;0.00;0.00;;;;;;;7.32;65.06;99339.44;11229300;26;20020;-60
2024/04/15 21:56:14;;;;;;;0.00;0.00;;;;;;;7.26;65.61;99347.34;11235578;26;20019;-62
2024/04/15 22:01:16;;;;;;;0.00;0.00;;;;;;;7.25;65.73;99329.66;11206189;26;20002;-60
2024/04/15 22:06:17;;;;;;;0.00;0.00;;;;;;;7.29;65.53;99331.78;11238093;26;20002;-60
2024/04/15 22:11:19;;;;;;;0.00;0.00;;;;;;;7.31;65.30;99326.28;11225624;26;20007;-61
2024/04/15 22:16:20;;;;;;;0.00;0.00;;;;;;;7.39;65.30;99328.88;11224283;26;20018;-60
2024/04/15 22:21:22;;;;;;;0.00;0.00;;;;;;;7.46;65.23;99331.66;11229297;26;20003;-60
2024/04/15 22:26:23;;;;;;;0.00;0.00;;;;;;;7.43;65.70;99329.34;11229129;26;20002;-59
2024/04/15 22:31:25;;;;;;;0.00;0.00;;;;;;;7.43;65.82;99310.63;11219565;26;20003;-60
2024/04/15 22:36:27;;;;;;;0.00;0.00;;;;;;;7.52;65.69;99318.41;11204897;26;20050;-61
2024/04/15 22:41:28;;;;;;;0.00;0.00;;;;;;;7.59;65.64;99310.47;11231710;26;20007;-60
2024/04/15 22:46:30;;;;;;;0.00;0.00;;;;;;;7.69;65.71;99308.34;11188717;26;20014;-60
2024/04/15 22:51:31;;;;;;;0.00;0.00;;;;;;;7.66;66.09;99306.06;11227579;26;20329;-62
2024/04/15 22:56:33;;;;;;;0.00;0.00;;;;;;;7.66;66.04;99311.41;11232589;26;19999;-59
2024/04/15 23:01:34;;;;;;;0.98;0.20;;;;;;;7.64;66.03;99310.75;11221577;26;19995;-60
2024/04/15 23:06:36;;;;;;;0.35;0.10;;;;;;;7.53;66.57;99316.53;11224101;26;20427;-60
2024/04/15 23:11:38;;;;;;;0.60;0.30;;;;;;;7.57;66.52;99314.34;11227383;26;20010;-60
2024/04/15 23:16:40;;;;;;;0.70;0.40;;;;;;;7.51;66.91;99310.56;11226775;26;20006;-60
2024/04/15 23:21:41;;;;;;;2.78;0.20;;;;;;;7.45;67.66;99298.72;11231269;26;20000;-60
2024/04/15 23:26:43;;;;;;;0.60;0.20;;;;;;;7.45;67.47;99304.09;11234899;26;20002;-60
2024/04/15 23:31:46;;;;;;;3.83;0.20;;;;;;;7.45;67.62;99309.44;11225371;26;20461;-60